Verona, Illinois
Current Conditions -  °F | °C
As of 5:55 PM on Sunday 23 Nov 2014 (Local Time) from KC09 Reporting Station
Moderate Rain Moderate Rain  
Wind Chill: 50°   Ceiling: 700
Heat Index: 50°   Visibility: 4mi
Dew Point: 50°   Wind: 7mph
Humidity: 100%   Direction: 120°ESE
Pressure: 29.34"   Gusts: NA
Location:  41.22°N, 88.5°W
Report Text: KC09 232355Z AUTO 12006KT 4SM RA OVC007 10/10 A2934 RMK AO2 T01020102 10110 20098
Loading
Personal Weather Stations






























Interactive Weather Map New forecast layout! Learn more

10-Day Weather Forecast

Advertisements
Track Severe Weather on mobile